Time;durP1;ratioP1;P1;durP2;ratioP2;P2;SDS_P1;SDS_P2;PMS_P1;PMS_P2;Temp;Humidity;BMP_temperature;BMP_pressure;BME280_temperature;BME280_humidity;BME280_pressure;Samples;Min_cycle;Max_cycle;Signal;HPM_P1;HPM_P2
2023/05/12 00:00:28;;;;;;;11.52;8.48;;;;;;;8.62;100.00;95590.63;1026334;28;20034;-75
2023/05/12 00:00:58;;;;;;;13.02;8.57;;;;;;;8.61;100.00;95583.03;1021730;28;20042;-75
2023/05/12 00:01:29;;;;;;;13.02;8.65;;;;;;;8.65;100.00;95592.75;1026371;28;20034;-76
2023/05/12 00:01:59;;;;;;;14.73;9.00;;;;;;;8.66;100.00;95594.31;1022022;28;20568;-76
2023/05/12 00:02:30;;;;;;;15.85;8.70;;;;;;;8.65;100.00;95591.94;1025868;28;20039;-76
2023/05/12 00:03:02;;;;;;;14.35;10.30;;;;;;;8.63;100.00;95581.72;1025819;28;20047;-76
2023/05/12 00:03:33;;;;;;;15.68;8.77;;;;;;;8.65;100.00;95592.75;1022552;28;20073;-76
2023/05/12 00:04:03;;;;;;;14.05;9.48;;;;;;;8.67;100.00;95592.47;1025954;28;20907;-76
2023/05/12 00:04:34;;;;;;;12.80;8.93;;;;;;;8.64;100.00;95587.75;1018137;28;20030;-75
2023/05/12 00:05:06;;;;;;;14.55;9.43;;;;;;;8.68;100.00;95594.81;1017910;29;20819;-76
2023/05/12 00:05:36;;;;;;;17.77;9.43;;;;;;;8.62;100.00;95580.16;1018155;29;20275;-75
2023/05/12 00:06:07;;;;;;;13.65;8.88;;;;;;;8.62;100.00;95580.16;1016356;28;20758;-76
2023/05/12 00:06:37;;;;;;;14.85;9.80;;;;;;;8.68;100.00;95589.59;1025939;28;20113;-76
2023/05/12 00:07:08;;;;;;;13.88;9.85;;;;;;;8.53;100.00;95571.22;1025968;28;20081;-75
2023/05/12 00:07:38;;;;;;;15.88;9.43;;;;;;;8.66;100.00;95594.31;1018105;28;20121;-75
2023/05/12 00:08:09;;;;;;;12.48;8.70;;;;;;;8.68;100.00;95597.44;1022035;28;20035;-75
2023/05/12 00:08:39;;;;;;;12.30;9.20;;;;;;;8.68;100.00;95591.44;1017619;29;20043;-76
2023/05/12 00:09:10;;;;;;;17.55;10.23;;;;;;;8.66;100.00;95591.69;1021561;29;20031;-76
2023/05/12 00:09:40;;;;;;;14.27;10.25;;;;;;;8.66;100.00;95593.53;1018926;28;20406;-76
2023/05/12 00:10:11;;;;;;;17.23;10.60;;;;;;;8.68;100.00;95596.66;1021983;29;20027;-76
2023/05/12 00:10:41;;;;;;;21.35;10.65;;;;;;;8.64;100.00;95590.38;1025996;28;20489;-77
2023/05/12 00:11:12;;;;;;;15.93;10.35;;;;;;;8.60;100.00;95586.69;1026096;28;20070;-76
2023/05/12 00:11:42;;;;;;;19.23;10.55;;;;;;;8.61;100.00;95589.03;1026013;28;20046;-75
2023/05/12 00:12:13;;;;;;;16.00;9.68;;;;;;;8.61;100.00;95590.88;1017892;29;20027;-75
2023/05/12 00:12:43;;;;;;;15.80;10.00;;;;;;;8.57;100.00;95579.34;1014226;29;20039;-75
2023/05/12 00:13:14;;;;;;;15.55;10.18;;;;;;;8.63;100.00;95594.03;1021943;29;20032;-75
2023/05/12 00:13:44;;;;;;;24.13;10.57;;;;;;;8.59;100.00;95588.53;1026248;28;20031;-75
2023/05/12 00:14:15;;;;;;;15.43;9.98;;;;;;;8.61;100.00;95591.66;1030045;28;20029;-75
2023/05/12 00:14:45;;;;;;;13.95;9.82;;;;;;;8.63;100.00;95592.19;1029570;28;20027;-76
2023/05/12 00:15:18;;;;;;;17.02;9.80;;;;;;;8.65;100.00;95594.53;1022031;29;20106;-75
2023/05/12 00:15:49;;;;;;;19.55;11.20;;;;;;;8.62;100.00;95585.41;1022419;28;20110;-74
2023/05/12 00:16:20;;;;;;;16.63;10.30;;;;;;;8.61;100.00;95588.25;1026425;28;20277;-75
2023/05/12 00:16:50;;;;;;;14.70;9.63;;;;;;;8.64;100.00;95591.16;1026567;28;20266;-74
2023/05/12 00:17:21;;;;;;;18.90;10.50;;;;;;;8.58;100.00;95579.06;1029742;28;20026;-75
2023/05/12 00:17:51;;;;;;;16.25;9.60;;;;;;;8.63;100.00;95586.97;1018337;28;20039;-76
2023/05/12 00:18:22;;;;;;;13.43;9.63;;;;;;;8.65;100.00;95591.94;1022115;28;20030;-75
2023/05/12 00:18:52;;;;;;;16.60;9.95;;;;;;;8.63;100.00;95583.56;1017554;29;20405;-73
2023/05/12 00:19:23;;;;;;;15.98;10.30;;;;;;;8.65;100.00;95590.13;1018274;29;20028;-75
2023/05/12 00:19:53;;;;;;;14.40;9.75;;;;;;;8.58;100.00;95576.47;1021288;28;20590;-75
2023/05/12 00:20:27;;;;;;;15.32;9.82;;;;;;;8.66;100.00;95586.47;1022097;29;20075;-76
2023/05/12 00:20:57;;;;;;;15.82;10.27;;;;;;;8.60;100.00;95582.25;1018745;29;20032;-75
2023/05/12 00:21:28;;;;;;;13.70;9.45;;;;;;;8.65;100.00;95591.94;1020312;29;20321;-75
2023/05/12 00:21:58;;;;;;;16.95;9.90;;;;;;;8.66;100.00;95586.47;1023067;28;20043;-75
2023/05/12 00:22:30;;;;;;;15.32;9.90;;;;;;;8.69;100.00;95585.97;1026379;28;20058;-74
2023/05/12 00:23:00;;;;;;;15.35;10.15;;;;;;;8.68;100.00;95588.81;1030059;28;20030;-75
2023/05/12 00:23:31;;;;;;;18.45;10.40;;;;;;;8.68;100.00;95586.97;1030230;28;20274;-76
2023/05/12 00:24:01;;;;;;;15.07;10.40;;;;;;;8.69;100.00;95591.19;1030043;28;20029;-75
2023/05/12 00:24:32;;;;;;;19.88;10.82;;;;;;;8.68;100.00;95586.97;1034157;28;20685;-76
2023/05/12 00:25:02;;;;;;;24.05;11.68;;;;;;;8.60;100.00;95582.25;1029864;28;20034;-75
2023/05/12 00:25:33;;;;;;;16.25;10.20;;;;;;;8.67;100.00;95588.03;1030095;28;20077;-75
2023/05/12 00:26:03;;;;;;;17.92;10.63;;;;;;;8.63;100.00;95580.94;1026012;28;20055;-76
2023/05/12 00:26:34;;;;;;;15.15;10.38;;;;;;;8.69;100.00;95587.78;1029420;28;20719;-76
2023/05/12 00:27:05;;;;;;;16.48;9.93;;;;;;;8.69;100.00;95591.19;1029977;28;20605;-76
2023/05/12 00:27:35;;;;;;;13.70;9.45;;;;;;;8.65;100.00;95584.91;1029932;28;20046;-75
2023/05/12 00:28:06;;;;;;;16.27;10.23;;;;;;;8.67;100.00;95582.78;1016243;29;20310;-76
2023/05/12 00:28:36;;;;;;;19.38;10.07;;;;;;;8.67;100.00;95579.41;1017348;29;20038;-75
2023/05/12 00:29:07;;;;;;;15.50;10.10;;;;;;;8.67;100.00;95588.03;1021950;29;20078;-75
2023/05/12 00:29:37;;;;;;;17.30;11.48;;;;;;;8.66;100.00;95583.84;1022299;28;20039;-76
2023/05/12 00:30:09;;;;;;;18.42;9.68;;;;;;;8.66;100.00;95575.22;1014249;29;20035;-76
2023/05/12 00:30:39;;;;;;;16.27;9.88;;;;;;;8.65;100.00;95582.28;1018262;29;20445;-75
2023/05/12 00:31:10;;;;;;;16.40;10.10;;;;;;;8.64;100.00;95587.75;1022055;29;20274;-75
2023/05/12 00:31:40;;;;;;;16.50;10.15;;;;;;;8.64;100.00;95582.50;1022405;28;20031;-75
2023/05/12 00:32:11;;;;;;;13.80;9.68;;;;;;;8.66;100.00;95583.84;1025773;28;20030;-75
2023/05/12 00:32:41;;;;;;;14.52;9.90;;;;;;;8.66;100.00;95581.22;1025884;28;20636;-76
2023/05/12 00:33:12;;;;;;;15.13;10.43;;;;;;;8.64;100.00;95582.50;1026044;28;20436;-76
2023/05/12 00:33:42;;;;;;;15.82;9.75;;;;;;;8.67;100.00;95582.78;1026096;28;20520;-75
2023/05/12 00:34:12;;;;;;;16.05;9.77;;;;;;;8.64;100.00;95583.31;1026210;28;20067;-75
2023/05/12 00:34:43;;;;;;;12.35;8.88;;;;;;;8.67;100.00;95582.78;1018110;29;20027;-75
2023/05/12 00:35:14;;;;;;;15.77;9.80;;;;;;;8.67;100.00;95582.78;1017939;29;20087;-75
2023/05/12 00:35:45;;;;;;;17.20;9.48;;;;;;;8.67;100.00;95582.00;1018518;28;20079;-75
2023/05/12 00:36:15;;;;;;;13.50;9.30;;;;;;;8.66;100.00;95577.84;1018249;28;20861;-74
2023/05/12 00:36:46;;;;;;;17.73;9.95;;;;;;;8.64;100.00;95572.84;1026090;28;20473;-76
2023/05/12 00:37:16;;;;;;;18.13;9.65;;;;;;;8.63;100.00;95575.72;1030257;28;20486;-75
2023/05/12 00:37:47;;;;;;;14.77;9.85;;;;;;;8.64;100.00;95575.44;1026043;28;20027;-76
2023/05/12 00:38:17;;;;;;;15.00;10.05;;;;;;;8.59;100.00;95570.22;1029830;28;20037;-75
2023/05/12 00:38:48;;;;;;;14.57;9.73;;;;;;;8.67;100.00;95576.78;1025233;28;20656;-75
2023/05/12 00:39:18;;;;;;;15.95;9.90;;;;;;;8.66;100.00;95576.00;1025998;28;20038;-75
2023/05/12 00:39:49;;;;;;;16.05;10.35;;;;;;;8.68;100.00;95573.13;1025986;28;20031;-76
2023/05/12 00:40:19;;;;;;;20.58;10.45;;;;;;;8.62;100.00;95564.47;1021942;28;20027;-75
2023/05/12 00:40:50;;;;;;;16.60;9.05;;;;;;;8.66;100.00;95570.00;1025941;28;20031;-75
2023/05/12 00:41:20;;;;;;;17.20;9.80;;;;;;;8.66;100.00;95570.78;1026041;28;20035;-75
2023/05/12 00:41:57;;;;;;;20.77;9.88;;;;;;;8.60;100.00;95571.78;1025833;28;20504;-74
2023/05/12 00:42:28;;;;;;;16.65;9.82;;;;;;;8.64;100.00;95567.59;1025959;28;20535;-75
2023/05/12 00:42:58;;;;;;;14.50;10.50;;;;;;;8.64;100.00;95572.06;1021851;28;20287;-76
2023/05/12 00:43:30;;;;;;;13.20;9.80;;;;;;;8.62;100.00;95574.16;1021714;29;20027;-73
2023/05/12 00:44:00;;;;;;;12.60;8.95;;;;;;;8.55;100.00;95557.88;1018474;29;20039;-75
2023/05/12 00:44:31;;;;;;;13.63;10.18;;;;;;;8.54;100.00;95562.31;1018112;29;20274;-74
2023/05/12 00:45:02;;;;;;;14.82;10.40;;;;;;;8.55;100.00;95561.31;1017963;29;20038;-75
2023/05/12 00:45:33;;;;;;;14.88;10.25;;;;;;;8.59;100.00;95572.03;1022549;28;20023;-75
2023/05/12 00:46:04;;;;;;;15.18;10.35;;;;;;;8.53;100.00;95559.97;1026127;28;20278;-75
2023/05/12 00:46:35;;;;;;;18.42;10.45;;;;;;;8.56;100.00;95569.94;1025805;28;20037;-75
2023/05/12 00:47:06;;;;;;;15.35;9.88;;;;;;;8.53;100.00;95571.22;1026087;28;20294;-76
2023/05/12 00:47:36;;;;;;;15.55;10.25;;;;;;;8.54;100.00;95575.41;1021759;28;20648;-75
2023/05/12 00:48:07;;;;;;;17.80;10.20;;;;;;;8.52;100.00;95564.44;1018243;29;20015;-76
2023/05/12 00:48:37;;;;;;;16.05;9.95;;;;;;;8.54;100.00;95572.78;1013356;29;20497;-75
2023/05/12 00:49:07;;;;;;;15.90;9.98;;;;;;;8.53;100.00;95565.22;1016024;29;20594;-74
2023/05/12 00:49:41;;;;;;;16.83;10.90;;;;;;;8.52;100.00;95571.47;1021743;29;20019;-75
2023/05/12 00:50:11;;;;;;;14.88;9.57;;;;;;;8.49;100.00;95573.56;1017940;29;20151;-75
2023/05/12 00:50:42;;;;;;;15.27;10.10;;;;;;;8.43;100.00;95558.09;1021894;29;20262;-76
2023/05/12 00:51:12;;;;;;;17.48;10.25;;;;;;;8.49;100.00;95570.16;1018408;29;20024;-76
2023/05/12 00:51:43;;;;;;;14.70;9.70;;;;;;;8.46;100.00;95565.44;1021839;29;20023;-75
2023/05/12 00:52:13;;;;;;;16.45;10.27;;;;;;;8.49;100.00;95567.53;1022104;28;20035;-75
2023/05/12 00:52:45;;;;;;;14.20;9.73;;;;;;;8.48;100.00;95569.38;1018415;29;20016;-75
2023/05/12 00:53:15;;;;;;;22.40;11.80;;;;;;;8.50;100.00;95567.28;1022678;28;20023;-76
2023/05/12 00:53:46;;;;;;;15.73;9.65;;;;;;;8.48;100.00;95574.59;1022515;29;20247;-75
2023/05/12 00:54:16;;;;;;;17.58;10.60;;;;;;;8.41;100.00;95558.31;1018269;29;20019;-75
2023/05/12 00:54:47;;;;;;;15.57;10.35;;;;;;;8.43;100.00;95564.09;1018764;29;20027;-75
2023/05/12 00:55:17;;;;;;;16.55;11.02;;;;;;;8.49;100.00;95570.16;1014587;29;20024;-75
2023/05/12 00:55:48;;;;;;;15.07;9.80;;;;;;;8.47;100.00;95562.56;1014780;29;20059;-74
2023/05/12 00:56:18;;;;;;;15.05;9.93;;;;;;;8.40;100.00;95555.97;1019103;28;20658;-75
2023/05/12 00:56:49;;;;;;;17.15;11.02;;;;;;;8.41;100.00;95560.16;1022827;28;20042;-75
2023/05/12 00:57:19;;;;;;;15.13;9.85;;;;;;;8.41;100.00;95557.53;1022788;29;20034;-75
2023/05/12 00:57:50;;;;;;;20.38;11.13;;;;;;;8.40;100.00;95563.81;1022427;29;20066;-75
2023/05/12 00:58:20;;;;;;;19.88;10.80;;;;;;;8.40;100.00;95569.84;1022554;29;20091;-75
2023/05/12 00:58:51;;;;;;;20.15;10.75;;;;;;;8.39;100.00;95564.88;1021988;29;20520;-76
2023/05/12 00:59:21;;;;;;;14.48;9.55;;;;;;;8.35;100.00;95558.53;1022207;28;20023;-75
2023/05/12 00:59:53;;;;;;;17.90;11.00;;;;;;;8.37;100.00;95562.47;1026610;28;20023;-75
2023/05/12 01:00:24;;;;;;;13.52;9.57;;;;;;;8.37;100.00;95561.69;1026510;28;20493;-76
2023/05/12 01:00:55;;;;;;;14.95;9.88;;;;;;;8.35;100.00;95564.56;1022511;29;20251;-75
2023/05/12 01:01:25;;;;;;;15.48;9.35;;;;;;;8.33;100.00;95563.22;1023407;28;20513;-75
2023/05/12 01:01:56;;;;;;;15.20;10.10;;;;;;;8.29;100.00;95557.72;1026837;28;20259;-75
2023/05/12 01:02:26;;;;;;;15.40;9.93;;;;;;;8.33;100.00;95568.47;1022618;29;20027;-75
2023/05/12 01:02:57;;;;;;;15.52;10.02;;;;;;;8.26;100.00;95555.59;1022629;29;20555;-75
2023/05/12 01:03:28;;;;;;;16.58;9.57;;;;;;;8.27;100.00;95562.41;1018670;29;20102;-76
2023/05/12 01:03:58;;;;;;;16.20;9.65;;;;;;;8.24;100.00;95563.69;1014738;29;20015;-75
2023/05/12 01:04:29;;;;;;;18.63;10.23;;;;;;;8.23;100.00;95556.88;1018979;29;20151;-76
2023/05/12 01:04:59;;;;;;;21.95;10.23;;;;;;;8.28;100.00;95561.34;1018597;29;20083;-75
2023/05/12 01:05:34;;;;;;;18.05;10.68;;;;;;;8.28;100.00;95569.19;1022629;29;20031;-76
2023/05/12 01:06:07;;;;;;;19.88;11.10;;;;;;;8.21;100.00;95560.78;1024243;28;20137;-75
2023/05/12 01:06:58;;;;;;;22.83;10.73;;;;;;;8.24;100.00;95574.13;1026507;28;20270;-75
2023/05/12 01:07:30;;;;;;;19.58;10.60;;;;;;;8.20;100.00;95562.63;1022132;29;20279;-75
2023/05/12 01:08:01;;;;;;;17.98;10.43;;;;;;;8.19;100.00;95566.28;1018277;29;20678;-75
2023/05/12 01:08:31;;;;;;;17.65;10.52;;;;;;;8.21;100.00;95566.78;1021801;29;20279;-75
2023/05/12 01:09:02;;;;;;;13.25;9.73;;;;;;;8.19;100.00;95571.50;1014291;29;20858;-76
2023/05/12 01:09:33;;;;;;;15.45;9.88;;;;;;;8.14;100.00;95561.00;1018449;29;20035;-75
2023/05/12 01:10:04;;;;;;;17.25;10.45;;;;;;;8.17;100.00;95568.34;1022686;29;20035;-76
2023/05/12 01:10:35;;;;;;;17.90;10.13;;;;;;;8.19;100.00;95570.72;1014787;29;20026;-75
2023/05/12 01:11:05;;;;;;;19.42;10.43;;;;;;;8.12;100.00;95562.31;1019359;29;20038;-75
2023/05/12 01:11:36;;;;;;;21.05;10.75;;;;;;;8.16;100.00;95564.16;1026662;28;20045;-75
2023/05/12 01:12:07;;;;;;;17.08;10.48;;;;;;;8.17;100.00;95568.34;1026588;28;20065;-75
2023/05/12 01:12:37;;;;;;;14.18;9.13;;;;;;;8.13;100.00;95556.03;1030835;28;20068;-75
2023/05/12 01:13:07;;;;;;;17.10;10.25;;;;;;;8.13;100.00;95562.06;1026808;28;20023;-76
2023/05/12 01:13:39;;;;;;;20.55;10.43;;;;;;;8.18;100.00;95569.94;1022470;28;20027;-75
2023/05/12 01:14:10;;;;;;;18.17;9.85;;;;;;;8.16;100.00;95566.78;1026480;28;20033;-75
2023/05/12 01:14:40;;;;;;;19.92;10.43;;;;;;;8.11;100.00;95561.50;1026791;28;20917;-75
2023/05/12 01:15:11;;;;;;;19.83;10.27;;;;;;;8.17;100.00;95568.34;1026749;28;20030;-75
2023/05/12 01:15:45;;;;;;;17.85;9.90;;;;;;;8.15;100.00;95565.22;1026378;28;20106;-75
2023/05/12 01:16:17;;;;;;;16.88;10.82;;;;;;;8.14;100.00;95558.38;1019058;29;20031;-75
2023/05/12 01:16:52;;;;;;;16.27;10.70;;;;;;;8.13;100.00;95556.03;1022866;29;20719;-76
2023/05/12 01:17:28;;;;;;;19.48;10.93;;;;;;;8.17;100.00;95557.88;1022607;29;20267;-74
2023/05/12 01:18:00;;;;;;;19.45;11.00;;;;;;;8.15;100.00;95564.41;1022441;29;20265;-73
2023/05/12 01:18:30;;;;;;;18.65;10.38;;;;;;;8.15;100.00;95565.22;1022614;29;20270;-75
2023/05/12 01:19:02;;;;;;;18.38;10.60;;;;;;;8.12;100.00;95560.47;1017780;29;20267;-75
2023/05/12 01:19:51;;;;;;;17.42;10.52;;;;;;;8.14;100.00;95562.84;1018666;29;20028;-76
2023/05/12 01:20:22;;;;;;;16.85;10.02;;;;;;;8.15;100.00;95554.75;1018385;29;20267;-75
2023/05/12 01:20:54;;;;;;;16.30;9.43;;;;;;;8.14;100.00;95563.63;1022735;29;20353;-74
2023/05/12 01:21:24;;;;;;;13.25;8.68;;;;;;;8.09;100.00;95555.75;1021037;29;20271;-75
2023/05/12 01:21:54;;;;;;;16.23;10.25;;;;;;;8.13;100.00;95551.59;1027002;28;20266;-75
2023/05/12 01:22:25;;;;;;;17.83;9.95;;;;;;;8.07;100.00;95560.44;1022276;29;20647;-75
2023/05/12 01:22:55;;;;;;;15.38;9.93;;;;;;;8.11;100.00;95556.28;1018410;29;20024;-76
2023/05/12 01:23:27;;;;;;;14.00;9.80;;;;;;;8.13;100.00;95556.03;1022719;29;20023;-76
2023/05/12 01:23:58;;;;;;;16.58;10.05;;;;;;;8.10;100.00;95557.31;1018353;29;20051;-74
2023/05/12 01:24:28;;;;;;;14.07;9.75;;;;;;;8.12;100.00;95559.69;1018518;29;20279;-74
2023/05/12 01:25:03;;;;;;;16.40;10.02;;;;;;;8.10;100.00;95557.31;1022417;29;20283;-75
2023/05/12 01:25:34;;;;;;;14.98;9.50;;;;;;;8.11;100.00;95552.88;1019299;29;20032;-75
2023/05/12 01:26:07;;;;;;;15.07;10.13;;;;;;;8.11;100.00;95556.28;1014629;29;20260;-75
2023/05/12 01:26:38;;;;;;;16.42;10.00;;;;;;;8.04;100.00;95547.88;1025410;28;20038;-75
2023/05/12 01:27:08;;;;;;;17.17;9.63;;;;;;;8.11;100.00;95558.88;1022455;29;20793;-75
2023/05/12 01:27:39;;;;;;;15.95;9.45;;;;;;;8.03;100.00;95547.09;1026800;28;20030;-75
2023/05/12 01:28:09;;;;;;;18.27;10.23;;;;;;;8.11;100.00;95558.88;1018282;28;20027;-76
2023/05/12 01:28:40;;;;;;;15.68;9.80;;;;;;;8.08;100.00;95556.81;1017876;29;20094;-75
2023/05/12 01:29:10;;;;;;;17.08;10.10;;;;;;;8.08;100.00;95556.81;1022679;29;20479;-75
2023/05/12 01:29:41;;;;;;;14.88;9.63;;;;;;;8.11;100.00;95558.88;1022313;29;20444;-73
2023/05/12 01:30:17;;;;;;;15.10;10.05;;;;;;;8.13;100.00;95550.81;1022856;29;20031;-75
2023/05/12 01:30:47;;;;;;;16.50;9.85;;;;;;;8.13;100.00;95559.44;1018491;29;20765;-75
2023/05/12 01:31:18;;;;;;;15.95;9.88;;;;;;;8.11;100.00;95552.88;1027311;28;20269;-75
2023/05/12 01:31:48;;;;;;;19.55;9.95;;;;;;;8.11;100.00;95555.50;1026309;28;20029;-75
2023/05/12 01:32:19;;;;;;;18.58;10.50;;;;;;;8.13;100.00;95550.81;1030381;28;20120;-74
2023/05/12 01:32:49;;;;;;;17.17;10.52;;;;;;;8.15;100.00;95554.75;1022668;29;20027;-75
2023/05/12 01:33:20;;;;;;;20.35;10.77;;;;;;;8.11;100.00;95547.66;1022436;29;20071;-75
2023/05/12 01:33:50;;;;;;;19.67;10.57;;;;;;;8.08;100.00;95551.56;1014677;29;20035;-74
2023/05/12 01:34:21;;;;;;;18.55;10.60;;;;;;;8.16;100.00;95561.56;1022854;29;20086;-75
2023/05/12 01:34:51;;;;;;;17.30;10.60;;;;;;;8.08;100.00;95548.97;1026204;28;20108;-74
2023/05/12 01:35:22;;;;;;;19.20;11.00;;;;;;;8.18;100.00;95553.44;1026318;28;20046;-76
2023/05/12 01:35:52;;;;;;;14.95;10.60;;;;;;;8.16;100.00;95552.94;1022688;28;20032;-76
2023/05/12 01:36:23;;;;;;;19.08;11.07;;;;;;;8.17;100.00;95563.13;1030309;28;20484;-74
2023/05/12 01:36:53;;;;;;;22.77;10.55;;;;;;;8.11;100.00;95545.81;1030511;28;20644;-75
2023/05/12 01:37:25;;;;;;;17.23;10.45;;;;;;;8.20;100.00;95559.22;1030650;28;20030;-76
2023/05/12 01:37:55;;;;;;;17.25;10.32;;;;;;;8.19;100.00;95555.81;1026149;28;20033;-75
2023/05/12 01:38:27;;;;;;;17.95;10.80;;;;;;;8.18;100.00;95559.50;1024607;28;20278;-75
2023/05/12 01:38:57;;;;;;;16.02;10.32;;;;;;;8.20;100.00;95561.84;1014285;29;20502;-74
2023/05/12 01:39:27;;;;;;;16.60;10.30;;;;;;;8.21;100.00;95556.34;1022699;28;20283;-75
2023/05/12 01:39:58;;;;;;;19.58;10.82;;;;;;;8.15;100.00;95554.75;1023359;28;20031;-75
2023/05/12 01:40:28;;;;;;;20.13;10.52;;;;;;;8.21;100.00;95553.72;1018513;28;20525;-75
2023/05/12 01:40:59;;;;;;;22.63;11.85;;;;;;;8.20;100.00;95560.00;1026465;28;20890;-75
2023/05/12 01:41:30;;;;;;;25.60;11.60;;;;;;;8.19;100.00;95561.06;1026534;28;20520;-75
2023/05/12 01:42:00;;;;;;;19.50;12.02;;;;;;;8.14;100.00;95553.16;1022369;28;20049;-75
2023/05/12 01:42:31;;;;;;;20.10;11.95;;;;;;;8.19;100.00;95568.91;1026676;28;20038;-75
2023/05/12 01:43:01;;;;;;;21.52;11.85;;;;;;;8.20;100.00;95570.47;1026306;28;20030;-75
2023/05/12 01:43:32;;;;;;;19.08;10.73;;;;;;;8.20;100.00;95559.22;1022369;28;20030;-75
2023/05/12 01:44:02;;;;;;;17.90;11.00;;;;;;;8.14;100.00;95541.94;1014748;29;20024;-75
2023/05/12 01:44:33;;;;;;;20.73;11.98;;;;;;;8.18;100.00;95554.25;1018388;29;20030;-75
2023/05/12 01:45:03;;;;;;;17.25;11.18;;;;;;;8.20;100.00;95557.38;1022252;29;20027;-74
2023/05/12 01:45:34;;;;;;;17.95;11.15;;;;;;;8.22;100.00;95560.56;1022320;29;20070;-75
2023/05/12 01:46:04;;;;;;;18.77;11.10;;;;;;;8.19;100.00;95550.59;1022453;28;20020;-75
2023/05/12 01:46:35;;;;;;;17.83;11.50;;;;;;;8.23;100.00;95559.50;1030694;28;20805;-75
2023/05/12 01:47:08;;;;;;;20.65;12.35;;;;;;;8.24;100.00;95566.28;1030358;28;20099;-75
2023/05/12 01:47:39;;;;;;;18.10;11.13;;;;;;;8.24;100.00;95555.84;1034253;28;20017;-75
2023/05/12 01:48:09;;;;;;;18.90;10.90;;;;;;;8.18;100.00;95546.41;1030649;28;20281;-74
2023/05/12 01:48:40;;;;;;;18.40;11.23;;;;;;;8.23;100.00;95550.88;1026427;28;20034;-75
2023/05/12 01:49:10;;;;;;;19.27;10.90;;;;;;;8.24;100.00;95561.06;1020867;29;20510;-76
2023/05/12 01:49:41;;;;;;;17.98;10.43;;;;;;;8.20;100.00;95554.78;1022502;29;20024;-75
2023/05/12 01:50:11;;;;;;;14.13;9.90;;;;;;;8.25;100.00;95562.66;1018682;29;20093;-75
2023/05/12 01:50:42;;;;;;;17.98;10.32;;;;;;;8.26;100.00;95555.59;1022274;28;20019;-75
2023/05/12 01:51:12;;;;;;;14.95;10.35;;;;;;;8.19;100.00;95555.81;1030371;28;20022;-76
2023/05/12 01:51:42;;;;;;;16.27;10.15;;;;;;;8.25;100.00;95560.06;1022447;28;20651;-75
2023/05/12 01:52:13;;;;;;;21.10;10.77;;;;;;;8.26;100.00;95559.00;1022591;28;20560;-75
2023/05/12 01:52:45;;;;;;;15.48;9.90;;;;;;;8.26;100.00;95556.38;1014551;29;20063;-75
2023/05/12 01:53:15;;;;;;;19.17;10.40;;;;;;;8.25;100.00;95554.03;1018885;28;20023;-75
2023/05/12 01:53:45;;;;;;;18.02;10.38;;;;;;;8.21;100.00;95553.72;1026746;28;20803;-76
2023/05/12 01:54:16;;;;;;;21.63;10.95;;;;;;;8.27;100.00;95568.41;1022508;28;20571;-75
2023/05/12 01:54:46;;;;;;;18.63;10.95;;;;;;;8.28;100.00;95561.34;1026694;28;20027;-75
2023/05/12 01:55:17;;;;;;;24.27;11.25;;;;;;;8.27;100.00;95563.19;1026430;28;20500;-75
2023/05/12 01:55:47;;;;;;;23.67;11.55;;;;;;;8.25;100.00;95565.28;1022490;28;20031;-75
2023/05/12 01:56:18;;;;;;;15.40;10.20;;;;;;;8.28;100.00;95561.34;1030735;28;20109;-75
2023/05/12 01:56:49;;;;;;;17.95;10.50;;;;;;;8.27;100.00;95562.41;1030540;28;20512;-76
2023/05/12 01:57:19;;;;;;;18.13;10.50;;;;;;;8.27;100.00;95568.41;1026425;28;20261;-75
2023/05/12 01:57:50;;;;;;;22.52;10.77;;;;;;;8.25;100.00;95559.28;1026276;28;20031;-75
2023/05/12 01:58:20;;;;;;;18.25;10.35;;;;;;;8.27;100.00;95568.41;1022557;28;20019;-75
2023/05/12 01:58:51;;;;;;;18.42;10.80;;;;;;;8.26;100.00;95564.22;1026174;28;20034;-75
2023/05/12 01:59:21;;;;;;;16.38;9.90;;;;;;;8.26;100.00;95563.44;1030223;28;20624;-75
2023/05/12 01:59:52;;;;;;;19.67;11.32;;;;;;;8.24;100.00;95558.47;1034521;28;20096;-75
2023/05/12 02:00:22;;;;;;;15.82;9.38;;;;;;;8.19;100.00;95547.97;1034465;28;20021;-76
2023/05/12 02:00:53;;;;;;;18.80;9.90;;;;;;;8.25;100.00;95560.06;1018151;29;20034;-75
2023/05/12 02:01:27;;;;;;;17.58;10.32;;;;;;;8.21;100.00;95561.56;1018446;29;20493;-75
2023/05/12 02:01:57;;;;;;;18.60;10.88;;;;;;;8.21;100.00;95558.97;1018347;29;20023;-75
2023/05/12 02:02:30;;;;;;;19.38;10.65;;;;;;;8.15;100.00;95553.94;1014126;29;20287;-75
2023/05/12 02:03:00;;;;;;;18.42;10.20;;;;;;;8.20;100.00;95561.84;1022585;29;20023;-75
2023/05/12 02:03:31;;;;;;;19.63;10.80;;;;;;;8.18;100.00;95569.94;1026204;28;20368;-75
2023/05/12 02:04:02;;;;;;;20.25;10.48;;;;;;;8.20;100.00;95562.63;1029456;28;20289;-75
2023/05/12 02:04:33;;;;;;;21.58;10.35;;;;;;;8.19;100.00;95563.66;1030166;28;20673;-75
2023/05/12 02:05:04;;;;;;;20.67;10.05;;;;;;;8.20;100.00;95567.06;1022339;29;20263;-75
2023/05/12 02:05:34;;;;;;;18.08;9.75;;;;;;;8.19;100.00;95560.28;1023322;28;20039;-75
2023/05/12 02:06:05;;;;;;;21.60;10.48;;;;;;;8.18;100.00;95569.94;1030276;28;20555;-75
2023/05/12 02:06:35;;;;;;;17.92;9.90;;;;;;;8.18;100.00;95561.28;1026288;28;20055;-76
2023/05/12 02:07:06;;;;;;;17.20;10.68;;;;;;;8.16;100.00;95566.78;1022524;29;20038;-75
2023/05/12 02:07:36;;;;;;;19.10;10.18;;;;;;;8.15;100.00;95564.41;1020413;29;20043;-75
2023/05/12 02:08:07;;;;;;;15.65;9.38;;;;;;;8.14;100.00;95562.84;1014447;29;20040;-75
2023/05/12 02:08:37;;;;;;;22.25;10.63;;;;;;;8.10;100.00;95565.16;1018313;28;20042;-75
2023/05/12 02:09:08;;;;;;;21.55;10.88;;;;;;;8.17;100.00;95572.78;1022372;28;20027;-75
2023/05/12 02:09:38;;;;;;;16.33;10.07;;;;;;;8.16;100.00;95566.78;1029469;28;20093;-76
2023/05/12 02:10:09;;;;;;;21.75;10.75;;;;;;;8.17;100.00;95568.34;1030452;28;20042;-75
2023/05/12 02:10:39;;;;;;;16.40;9.93;;;;;;;8.17;100.00;95567.56;1026316;28;20073;-75
2023/05/12 02:11:10;;;;;;;17.08;9.85;;;;;;;8.16;100.00;95566.78;1028078;28;20050;-75
2023/05/12 02:11:40;;;;;;;25.20;11.38;;;;;;;8.17;100.00;95573.56;1026378;28;20026;-75
2023/05/12 02:12:11;;;;;;;16.95;10.48;;;;;;;8.17;100.00;95568.34;1026152;28;20792;-75
2023/05/12 02:12:41;;;;;;;21.25;10.40;;;;;;;8.18;100.00;95569.13;1022578;28;20027;-75
2023/05/12 02:13:12;;;;;;;18.35;10.68;;;;;;;8.12;100.00;95562.31;1022157;29;20548;-75
2023/05/12 02:13:45;;;;;;;24.27;10.60;;;;;;;8.15;100.00;95567.00;1022547;28;20031;-75
2023/05/12 02:14:15;;;;;;;18.83;10.75;;;;;;;8.16;100.00;95572.00;1018215;29;20042;-76
2023/05/12 02:14:46;;;;;;;20.17;11.02;;;;;;;8.17;100.00;95567.56;1018404;29;20671;-75
2023/05/12 02:15:16;;;;;;;16.48;10.00;;;;;;;8.17;100.00;95565.72;1018711;29;20075;-75
2023/05/12 02:15:47;;;;;;;21.35;10.02;;;;;;;8.15;100.00;95570.44;1019227;28;20062;-75
2023/05/12 02:16:17;;;;;;;18.17;10.82;;;;;;;8.17;100.00;95568.34;1020069;28;20516;-74
2023/05/12 02:16:51;;;;;;;20.20;10.32;;;;;;;8.14;100.00;95565.44;1022682;29;20466;-75
2023/05/12 02:17:23;;;;;;;15.88;10.10;;;;;;;8.15;100.00;95569.63;1018723;29;20091;-76
2023/05/12 02:17:54;;;;;;;19.38;10.38;;;;;;;8.14;100.00;95571.47;1020142;28;20307;-75
2023/05/12 02:18:24;;;;;;;16.80;9.95;;;;;;;8.13;100.00;95566.50;1026905;28;20345;-74
2023/05/12 02:18:55;;;;;;;15.50;9.70;;;;;;;8.12;100.00;95568.31;1029710;28;20026;-74
2023/05/12 02:19:25;;;;;;;16.95;9.88;;;;;;;8.15;100.00;95569.63;1026715;28;20034;-75
2023/05/12 02:19:56;;;;;;;18.55;10.10;;;;;;;8.15;100.00;95569.63;1030122;28;20030;-75
2023/05/12 02:20:28;;;;;;;16.55;9.80;;;;;;;8.15;100.00;95567.81;1026721;28;20035;-75
2023/05/12 02:20:58;;;;;;;15.27;10.02;;;;;;;8.16;100.00;95566.00;1023973;28;20517;-75
2023/05/12 02:21:30;;;;;;;21.52;10.70;;;;;;;8.15;100.00;95562.59;1018841;29;20316;-74
2023/05/12 02:22:00;;;;;;;16.90;9.95;;;;;;;8.15;100.00;95569.63;1023835;28;20035;-74
2023/05/12 02:22:31;;;;;;;16.83;10.02;;;;;;;8.15;100.00;95565.22;1026100;28;20274;-74
2023/05/12 02:23:01;;;;;;;16.90;10.55;;;;;;;8.15;100.00;95567.81;1021324;28;20131;-75